Time;durP1;ratioP1;P1;durP2;ratioP2;P2;SDS_P1;SDS_P2;PMS_P1;PMS_P2;Temp;Humidity;BMP_temperature;BMP_pressure;BME280_temperature;BME280_humidity;BME280_pressure;Samples;Min_cycle;Max_cycle;Signal;HPM_P1;HPM_P2
2022/05/18 00:02:16;;;;;;;24.38;16.60;;;16.20;99.90;;;;;;5073459;28;20203;-45
2022/05/18 00:04:42;;;;;;;20.08;14.68;;;16.20;99.90;;;;;;5066964;28;20024;-46
2022/05/18 00:07:07;;;;;;;16.67;13.68;;;16.20;99.90;;;;;;5068527;28;20040;-45
2022/05/18 00:09:33;;;;;;;19.67;14.98;;;16.20;99.90;;;;;;5068453;28;20119;-44
2022/05/18 00:11:58;;;;;;;20.40;15.20;;;16.30;99.90;;;;;;5067554;28;20546;-44
2022/05/18 00:14:24;;;;;;;21.13;15.07;;;16.20;99.90;;;;;;5068270;28;20029;-44
2022/05/18 00:16:49;;;;;;;17.70;14.00;;;16.20;99.90;;;;;;5068179;28;20119;-44
2022/05/18 00:19:15;;;;;;;18.10;16.08;;;16.20;99.90;;;;;;5068139;28;20475;-44
2022/05/18 00:21:41;;;;;;;21.08;14.80;;;16.20;99.90;;;;;;5071502;28;20024;-44
2022/05/18 00:24:07;;;;;;;19.92;15.15;;;16.20;99.90;;;;;;5080464;28;20028;-44
2022/05/18 00:26:33;;;;;;;19.17;14.32;;;16.10;99.90;;;;;;5088339;28;20453;-44
2022/05/18 00:28:58;;;;;;;19.40;15.68;;;16.10;99.90;;;;;;5088535;28;20028;-44
2022/05/18 00:31:24;;;;;;;18.65;14.52;;;16.10;99.90;;;;;;5086906;28;20123;-44
2022/05/18 00:33:49;;;;;;;18.92;15.85;;;16.10;99.90;;;;;;5087816;28;20059;-44
2022/05/18 00:36:15;;;;;;;23.65;15.50;;;16.10;99.90;;;;;;5087028;28;20012;-46
2022/05/18 00:38:41;;;;;;;19.50;15.15;;;16.00;99.90;;;;;;5088558;28;20430;-44
2022/05/18 00:41:07;;;;;;;18.77;14.82;;;16.00;99.90;;;;;;5068601;28;20081;-44
2022/05/18 00:43:32;;;;;;;21.20;14.27;;;16.00;99.90;;;;;;5067435;28;20444;-45
2022/05/18 00:46:00;;;;;;;18.92;14.25;;;16.00;99.90;;;;;;5059737;28;20027;-44
2022/05/18 00:48:26;;;;;;;18.75;14.10;;;16.00;99.90;;;;;;5060217;28;20039;-45
2022/05/18 00:50:53;;;;;;;19.20;14.63;;;16.00;99.90;;;;;;5056071;28;20028;-43
2022/05/18 00:53:41;;;;;;;20.25;15.60;;;16.00;99.90;;;;;;5058225;28;20024;-44
2022/05/18 00:56:12;;;;;;;17.60;15.27;;;16.00;99.90;;;;;;5059330;28;20020;-44
2022/05/18 00:58:40;;;;;;;;;;;16.00;99.90;;;;;;5063432;28;20119;-44
2022/05/18 01:01:07;;;;;;;16.60;13.23;;;16.00;99.90;;;;;;5064256;28;19947;-44
2022/05/18 01:03:37;;;;;;;22.75;16.10;;;15.90;99.90;;;;;;5065920;28;20512;-44
2022/05/18 01:06:29;;;;;;;17.70;14.77;;;16.00;99.90;;;;;;5068192;28;20405;-44
2022/05/18 01:09:06;;;;;;;18.38;13.13;;;16.00;99.90;;;;;;5067424;28;20068;-44
2022/05/18 01:11:34;;;;;;;21.52;14.52;;;16.00;99.90;;;;;;5067890;28;20149;-43
2022/05/18 01:14:00;;;;;;;17.30;14.70;;;16.00;99.90;;;;;;5066942;28;20028;-43
2022/05/18 01:16:28;;;;;;;17.05;13.25;;;16.00;99.90;;;;;;5068207;28;20283;-45
2022/05/18 01:18:56;;;;;;;19.85;14.85;;;16.00;99.90;;;;;;5068017;28;20085;-46
2022/05/18 01:21:27;;;;;;;19.45;14.23;;;16.00;99.90;;;;;;5067925;28;20031;-44
2022/05/18 01:23:56;;;;;;;;;;;16.00;99.90;;;;;;5066890;28;20570;-43
2022/05/18 01:26:46;;;;;;;18.70;13.70;;;16.00;99.90;;;;;;5066620;28;19909;-44
2022/05/18 01:29:13;;;;;;;17.73;13.07;;;16.00;99.90;;;;;;5069593;28;20052;-44
2022/05/18 01:31:48;;;;;;;20.27;14.18;;;16.00;99.90;;;;;;5071456;28;20033;-44
2022/05/18 01:34:16;;;;;;;18.52;16.15;;;16.00;99.90;;;;;;5089453;28;20103;-44
2022/05/18 01:36:42;;;;;;;19.15;15.85;;;15.90;99.90;;;;;;5091789;28;20385;-43
2022/05/18 01:39:14;;;;;;;24.08;17.00;;;16.00;99.90;;;;;;5091826;28;20024;-44
2022/05/18 01:41:52;;;;;;;23.00;17.23;;;15.90;99.90;;;;;;5091177;28;20031;-44
2022/05/18 01:44:18;;;;;;;25.33;18.75;;;15.90;99.90;;;;;;5091642;28;20451;-46
2022/05/18 01:46:43;;;;;;;25.80;18.65;;;15.80;99.90;;;;;;5091218;28;20035;-44
2022/05/18 01:49:09;;;;;;;21.75;16.80;;;15.80;99.90;;;;;;5091469;28;20028;-43
2022/05/18 01:51:39;;;;;;;24.48;18.52;;;15.80;99.90;;;;;;5091193;28;20035;-44
2022/05/18 01:54:05;;;;;;;27.42;18.77;;;15.70;99.90;;;;;;5089799;28;20110;-44
2022/05/18 01:56:31;;;;;;;26.85;18.92;;;15.70;99.90;;;;;;5073150;28;20029;-44
2022/05/18 01:58:56;;;;;;;22.77;18.73;;;15.70;99.90;;;;;;5085627;28;20110;-44
2022/05/18 02:01:22;;;;;;;28.55;19.58;;;15.70;99.90;;;;;;5091083;28;20107;-44
2022/05/18 02:03:49;;;;;;;29.75;19.30;;;15.70;99.90;;;;;;5077980;28;20039;-44
2022/05/18 02:06:15;;;;;;;24.48;19.48;;;15.70;99.90;;;;;;5082303;28;20036;-44
2022/05/18 02:08:42;;;;;;;23.98;18.75;;;15.60;99.90;;;;;;5071072;28;20036;-43
2022/05/18 02:11:16;;;;;;;24.92;19.05;;;15.60;99.90;;;;;;5069538;28;20038;-44
2022/05/18 02:13:42;;;;;;;25.00;19.35;;;15.60;99.90;;;;;;5049159;28;20634;-44
2022/05/18 02:16:08;;;;;;;22.77;18.08;;;15.50;99.90;;;;;;5050810;28;20036;-45
2022/05/18 02:18:33;;;;;;;23.60;18.58;;;15.50;99.90;;;;;;5050250;28;20028;-44
2022/05/18 02:21:10;;;;;;;20.98;16.10;;;15.50;99.90;;;;;;5050523;28;20079;-45
2022/05/18 02:23:36;;;;;;;21.45;17.27;;;15.50;99.90;;;;;;5049897;28;20049;-43
2022/05/18 02:26:10;;;;;;;24.35;19.52;;;15.50;99.90;;;;;;5049956;28;20074;-43
2022/05/18 02:28:36;;;;;;;25.88;20.00;;;15.50;99.90;;;;;;5049226;28;20028;-44
2022/05/18 02:31:02;;;;;;;23.05;18.90;;;15.50;99.90;;;;;;5050090;28;20028;-44
2022/05/18 02:33:28;;;;;;;26.45;18.17;;;15.40;99.90;;;;;;5049635;28;20017;-44
2022/05/18 02:35:53;;;;;;;27.85;19.15;;;15.40;99.90;;;;;;5049948;28;20036;-44
2022/05/18 02:38:19;;;;;;;22.70;18.95;;;15.40;99.90;;;;;;5050133;28;20075;-44
2022/05/18 02:40:46;;;;;;;24.67;18.17;;;15.30;99.90;;;;;;5070349;28;20537;-44
2022/05/18 02:43:11;;;;;;;22.40;18.88;;;15.30;99.90;;;;;;5085011;28;20158;-44
2022/05/18 02:45:37;;;;;;;20.42;17.55;;;15.30;99.90;;;;;;5090376;28;20044;-44
2022/05/18 02:48:03;;;;;;;23.90;18.95;;;15.30;99.90;;;;;;5090118;28;20062;-43
2022/05/18 02:50:28;;;;;;;22.05;18.30;;;15.30;99.90;;;;;;5089931;28;20083;-44
2022/05/18 02:52:54;;;;;;;21.45;17.10;;;15.30;99.90;;;;;;5089494;28;20019;-44
2022/05/18 02:58:04;;;;;;;25.60;17.85;;;15.20;99.90;;;;;;5090411;28;20143;-44
2022/05/18 03:00:29;;;;;;;24.60;19.30;;;15.10;99.90;;;;;;5090383;28;20103;-44
2022/05/18 03:02:55;;;;;;;22.95;18.13;;;15.20;99.90;;;;;;5089739;28;20043;-44
2022/05/18 03:05:21;;;;;;;23.17;17.90;;;15.20;99.90;;;;;;5088462;28;20476;-43
2022/05/18 03:07:47;;;;;;;24.67;18.77;;;15.10;99.90;;;;;;5089568;28;20030;-43
2022/05/18 03:10:15;;;;;;;26.65;18.90;;;15.10;99.90;;;;;;5087338;28;20562;-43
2022/05/18 03:12:43;;;;;;;24.33;19.65;;;15.10;99.90;;;;;;5081890;28;20055;-44
2022/05/18 03:15:09;;;;;;;23.88;19.08;;;15.10;99.90;;;;;;5072693;28;20107;-44
2022/05/18 03:17:34;;;;;;;24.88;18.10;;;15.10;99.90;;;;;;5069904;28;20435;-43
2022/05/18 03:20:00;;;;;;;23.02;18.02;;;15.10;99.90;;;;;;5069439;28;20047;-44
2022/05/18 03:25:10;;;;;;;22.70;17.20;;;15.10;99.90;;;;;;5068872;28;20042;-44
2022/05/18 03:27:40;;;;;;;24.75;17.75;;;15.00;99.90;;;;;;5068827;28;20486;-43
2022/05/18 03:30:06;;;;;;;23.83;18.20;;;15.00;99.90;;;;;;5069122;28;20111;-43
2022/05/18 03:32:31;;;;;;;23.98;18.50;;;15.00;99.90;;;;;;5068285;28;20221;-44
2022/05/18 03:34:57;;;;;;;25.63;18.65;;;15.00;99.90;;;;;;5068792;28;20108;-45
2022/05/18 03:37:22;;;;;;;22.90;17.33;;;15.00;99.90;;;;;;5067588;28;20319;-44
2022/05/18 03:39:48;;;;;;;23.20;17.92;;;15.00;99.90;;;;;;5068700;28;20095;-44
2022/05/18 03:42:13;;;;;;;20.95;18.10;;;15.00;99.90;;;;;;5068304;28;20063;-44
2022/05/18 03:44:39;;;;;;;22.35;18.67;;;15.00;99.90;;;;;;5064908;28;20037;-44
2022/05/18 03:47:04;;;;;;;23.10;18.80;;;15.00;99.90;;;;;;5072812;28;20021;-43
2022/05/18 03:49:30;;;;;;;21.60;17.63;;;14.90;99.90;;;;;;5068512;28;20123;-44
2022/05/18 03:51:57;;;;;;;22.40;17.98;;;14.90;99.90;;;;;;5067523;28;20055;-44
2022/05/18 03:54:22;;;;;;;20.90;17.92;;;14.90;99.90;;;;;;5068228;28;20449;-44
2022/05/18 03:56:48;;;;;;;24.00;17.75;;;14.90;99.90;;;;;;5068705;28;20112;-44
2022/05/18 03:59:13;;;;;;;20.75;17.25;;;14.90;99.90;;;;;;5067197;28;20424;-44
2022/05/18 04:01:42;;;;;;;22.45;18.50;;;14.90;99.90;;;;;;5069279;28;20103;-49
2022/05/18 04:04:08;;;;;;;23.33;17.80;;;14.90;99.90;;;;;;5088735;28;20541;-44
2022/05/18 04:06:34;;;;;;;21.55;16.80;;;14.80;99.90;;;;;;5073019;28;20447;-44
2022/05/18 04:08:59;;;;;;;20.27;15.73;;;14.80;99.90;;;;;;5080540;28;20363;-43
2022/05/18 04:11:25;;;;;;;28.05;17.55;;;14.90;99.90;;;;;;5087297;28;20194;-43
2022/05/18 04:13:51;;;;;;;24.23;19.05;;;14.90;99.90;;;;;;5084853;28;20025;-44
2022/05/18 04:16:17;;;;;;;24.55;17.63;;;14.90;99.90;;;;;;5077921;28;20292;-44
2022/05/18 04:18:42;;;;;;;24.40;17.88;;;14.90;99.90;;;;;;5087437;28;20115;-44
2022/05/18 04:21:08;;;;;;;21.67;18.25;;;14.90;99.90;;;;;;5088954;28;20038;-44
2022/05/18 04:23:37;;;;;;;22.42;19.02;;;14.90;99.90;;;;;;5069772;28;20442;-46
2022/05/18 04:26:02;;;;;;;26.02;18.25;;;14.90;99.90;;;;;;5058898;28;20020;-45
2022/05/18 04:28:28;;;;;;;23.48;18.83;;;14.90;99.90;;;;;;5056963;28;20021;-44
2022/05/18 04:30:54;;;;;;;19.58;17.33;;;14.90;99.90;;;;;;5057068;28;20021;-45
2022/05/18 04:33:21;;;;;;;25.27;20.10;;;15.00;99.90;;;;;;5059066;28;20017;-43
2022/05/18 04:35:50;;;;;;;23.95;18.98;;;15.00;99.90;;;;;;5059923;28;20028;-43
2022/05/18 04:38:19;;;;;;;24.20;19.10;;;15.00;99.90;;;;;;5068199;28;20051;-43
2022/05/18 04:40:46;;;;;;;24.77;19.90;;;15.00;99.90;;;;;;5068506;28;20525;-44
2022/05/18 04:43:11;;;;;;;28.08;21.83;;;15.00;99.90;;;;;;5067737;28;20081;-43
2022/05/18 04:45:44;;;;;;;25.08;19.83;;;15.10;99.90;;;;;;5063997;28;20096;-44
2022/05/18 04:51:33;;;;;;;29.00;20.40;;;15.10;99.90;;;;;;5055335;28;20039;-43
2022/05/18 04:53:59;;;;;;;22.88;19.75;;;15.20;99.90;;;;;;5067929;28;20103;-44
2022/05/18 04:56:25;;;;;;;24.17;20.50;;;15.20;99.90;;;;;;5078607;28;20158;-44
2022/05/18 04:58:51;;;;;;;24.38;20.08;;;15.30;99.90;;;;;;5088562;28;20028;-44
2022/05/18 05:01:17;;;;;;;27.10;19.23;;;15.30;99.90;;;;;;5089536;28;20029;-44
2022/05/18 05:03:43;;;;;;;25.77;21.52;;;15.50;99.90;;;;;;5090425;28;20100;-43
2022/05/18 05:06:09;;;;;;;25.67;20.85;;;15.50;99.90;;;;;;5094359;28;20028;-43
2022/05/18 05:08:36;;;;;;;24.73;20.33;;;15.60;99.90;;;;;;5093928;28;20653;-44
2022/05/18 05:11:02;;;;;;;22.83;18.60;;;15.70;99.90;;;;;;5093484;28;20047;-45
2022/05/18 05:13:27;;;;;;;25.02;20.65;;;15.80;99.90;;;;;;5069697;28;20020;-43
2022/05/18 05:16:19;;;;;;;27.95;21.00;;;15.90;99.90;;;;;;5067988;28;20441;-44
2022/05/18 05:18:45;;;;;;;25.77;19.95;;;16.00;99.90;;;;;;5076465;28;20050;-44
2022/05/18 05:21:10;;;;;;;26.38;20.73;;;16.00;99.90;;;;;;5074684;28;20028;-46
2022/05/18 05:23:36;;;;;;;24.00;19.33;;;16.00;99.90;;;;;;5064693;28;20068;-44
2022/05/18 05:26:02;;;;;;;28.27;21.75;;;16.10;99.90;;;;;;5078956;28;20017;-46
2022/05/18 05:28:28;;;;;;;24.23;20.35;;;16.10;99.90;;;;;;5073409;28;20031;-43
2022/05/18 05:30:54;;;;;;;23.15;18.75;;;16.10;99.90;;;;;;5077877;28;20440;-44
2022/05/18 05:33:19;;;;;;;25.27;20.33;;;16.10;99.90;;;;;;5078922;28;20058;-44
2022/05/18 05:35:45;;;;;;;22.45;19.35;;;16.10;99.90;;;;;;5078468;28;20356;-43
2022/05/18 05:38:12;;;;;;;23.75;18.90;;;16.20;99.90;;;;;;5062712;28;20100;-44
2022/05/18 05:40:38;;;;;;;25.10;21.20;;;16.30;99.90;;;;;;5058501;28;20659;-44
2022/05/18 05:43:11;;;;;;;30.63;22.17;;;16.40;99.90;;;;;;5052187;28;20056;-44
2022/05/18 05:45:38;;;;;;;20.48;17.05;;;16.50;99.90;;;;;;5063690;28;20058;-44
2022/05/18 05:48:05;;;;;;;28.55;20.83;;;16.60;99.90;;;;;;5077093;28;20359;-46
2022/05/18 05:50:30;;;;;;;21.00;18.52;;;16.80;99.90;;;;;;5054028;28;20158;-44
2022/05/18 05:52:57;;;;;;;20.52;17.45;;;16.90;99.90;;;;;;5054180;28;20017;-44
2022/05/18 05:55:24;;;;;;;26.38;20.15;;;17.00;99.90;;;;;;5065278;28;20493;-44
2022/05/18 05:57:55;;;;;;;25.52;18.27;;;17.20;99.90;;;;;;5075848;28;20025;-37
2022/05/18 06:00:22;;;;;;;24.63;20.05;;;17.30;99.90;;;;;;5086084;28;20054;-37
2022/05/18 06:02:48;;;;;;;24.65;18.60;;;17.50;99.90;;;;;;5072395;28;20082;-36
2022/05/18 06:05:14;;;;;;;24.85;19.58;;;17.70;99.90;;;;;;5069256;28;20096;-36
2022/05/18 06:07:40;;;;;;;21.55;17.83;;;17.90;99.90;;;;;;5077526;28;20524;-37
2022/05/18 06:10:06;;;;;;;21.58;17.65;;;18.10;99.90;;;;;;5075251;28;20021;-36
2022/05/18 06:12:32;;;;;;;20.83;17.23;;;18.30;99.90;;;;;;5058207;28;20021;-37
2022/05/18 06:14:58;;;;;;;22.73;18.30;;;18.40;99.90;;;;;;5070783;28;20616;-37
2022/05/18 06:17:24;;;;;;;24.33;17.40;;;18.60;99.90;;;;;;5080869;28;20024;-37
2022/05/18 06:19:49;;;;;;;18.45;16.35;;;18.70;99.90;;;;;;5090516;28;20429;-37
2022/05/18 06:22:15;;;;;;;19.58;15.30;;;18.70;99.90;;;;;;5091396;28;20020;-37
2022/05/18 06:24:40;;;;;;;17.00;14.98;;;18.70;99.90;;;;;;5086566;28;20043;-36
2022/05/18 06:27:07;;;;;;;20.83;16.80;;;18.80;99.90;;;;;;5080451;28;20050;-36
2022/05/18 06:29:32;;;;;;;21.88;16.50;;;18.80;99.90;;;;;;5081863;28;20028;-37
2022/05/18 06:31:58;;;;;;;20.75;16.50;;;18.90;99.90;;;;;;5089878;28;20628;-36
2022/05/18 06:34:24;;;;;;;22.75;17.20;;;18.90;99.90;;;;;;5085273;28;20412;-37
2022/05/18 06:36:50;;;;;;;19.60;15.65;;;18.90;99.90;;;;;;5074175;28;20636;-37
2022/05/18 06:39:18;;;;;;;20.50;17.17;;;19.00;99.90;;;;;;5077169;28;20432;-37
2022/05/18 06:41:45;;;;;;;18.95;15.60;;;19.10;99.90;;;;;;5082960;28;20025;-37
2022/05/18 06:44:11;;;;;;;17.65;15.38;;;19.20;99.90;;;;;;5070515;28;20062;-37
2022/05/18 06:46:38;;;;;;;27.23;16.05;;;19.30;99.90;;;;;;5071441;28;20040;-37
2022/05/18 06:49:05;;;;;;;17.00;14.23;;;19.50;99.90;;;;;;5086318;28;20020;-40
2022/05/18 06:51:35;;;;;;;17.23;13.85;;;19.70;99.90;;;;;;5071755;28;20381;-37
2022/05/18 06:54:01;;;;;;;17.75;13.32;;;19.90;99.90;;;;;;5069939;28;20024;-38
2022/05/18 06:56:30;;;;;;;16.17;12.38;;;20.10;99.90;;;;;;5075558;28;20124;-41
2022/05/18 06:58:57;;;;;;;17.65;11.93;;;20.30;99.90;;;;;;5082678;28;20608;-37
2022/05/18 07:01:23;;;;;;;16.05;12.10;;;20.40;99.90;;;;;;5078469;28;20067;-38
2022/05/18 07:03:49;;;;;;;13.55;12.07;;;20.50;99.90;;;;;;5080504;28;20020;-37
2022/05/18 07:06:18;;;;;;;14.25;11.05;;;20.60;99.90;;;;;;5064640;28;20089;-38
2022/05/18 07:08:44;;;;;;;14.77;10.77;;;20.70;99.90;;;;;;5071104;28;20017;-38
2022/05/18 07:11:10;;;;;;;11.63;9.98;;;20.70;99.90;;;;;;5058432;28;20044;-38
2022/05/18 07:13:39;;;;;;;12.85;10.73;;;20.80;99.90;;;;;;5063505;28;20489;-39
2022/05/18 07:16:05;;;;;;;11.48;9.70;;;20.80;99.90;;;;;;5056426;28;20019;-38
2022/05/18 07:18:33;;;;;;;15.07;9.82;;;20.70;99.90;;;;;;5066245;28;20024;-38
2022/05/18 07:21:02;;;;;;;13.32;9.23;;;20.70;99.90;;;;;;5059218;28;20068;-38
2022/05/18 07:23:29;;;;;;;11.80;10.02;;;20.50;99.90;;;;;;5061943;28;20020;-38
2022/05/18 07:25:55;;;;;;;11.20;9.20;;;20.40;99.90;;;;;;5061213;28;20036;-37
2022/05/18 07:28:22;;;;;;;16.77;9.38;;;20.50;99.90;;;;;;5063849;28;20377;-38
2022/05/18 07:30:49;;;;;;;13.60;9.02;;;20.40;99.90;;;;;;5059822;28;20025;-38
2022/05/18 07:33:15;;;;;;;12.20;7.90;;;20.50;99.90;;;;;;5067019;28;20056;-37
2022/05/18 07:35:40;;;;;;;13.60;7.45;;;20.60;99.90;;;;;;5060417;28;20063;-37
2022/05/18 07:38:06;;;;;;;10.20;8.68;;;20.70;99.90;;;;;;5054532;28;20382;-37
2022/05/18 07:40:33;;;;;;;13.77;9.30;;;20.80;99.90;;;;;;5062543;28;20069;-36
2022/05/18 07:43:01;;;;;;;11.88;9.20;;;20.90;99.90;;;;;;5069300;28;20017;-36
2022/05/18 07:45:27;;;;;;;13.32;8.65;;;21.10;99.90;;;;;;5058791;28;20016;-36
2022/05/18 07:47:53;;;;;;;11.00;8.57;;;21.00;99.90;;;;;;5052528;28;20060;-36
2022/05/18 07:50:24;;;;;;;14.50;8.40;;;21.20;99.90;;;;;;5051857;28;20583;-36
2022/05/18 07:52:51;;;;;;;14.30;7.25;;;21.30;99.90;;;;;;5082455;28;20024;-36
2022/05/18 07:55:16;;;;;;;13.75;8.27;;;21.40;99.90;;;;;;5090906;28;20023;-36
2022/05/18 07:57:42;;;;;;;18.40;9.02;;;21.60;99.90;;;;;;5074239;28;20025;-36
2022/05/18 08:00:09;;;;;;;8.98;8.07;;;21.70;99.90;;;;;;5070037;28;20024;-36
2022/05/18 08:02:36;;;;;;;11.80;8.20;;;21.80;99.90;;;;;;5068237;28;20082;-36
2022/05/18 08:05:02;;;;;;;9.65;7.85;;;22.00;99.90;;;;;;5073259;28;20527;-37
2022/05/18 08:07:27;;;;;;;11.20;6.65;;;22.60;99.90;;;;;;5090052;28;20056;-37
2022/05/18 08:15:35;;;;;;;8.35;5.82;;;23.50;96.70;;;;;;5076901;28;20074;-37
2022/05/18 08:18:00;;;;;;;5.93;5.05;;;23.70;96.70;;;;;;5086235;28;20027;-37
2022/05/18 08:20:27;;;;;;;11.88;6.07;;;24.00;96.30;;;;;;5090185;28;20491;-37
2022/05/18 08:22:52;;;;;;;8.05;6.20;;;23.70;95.40;;;;;;5090766;28;20020;-37
2022/05/18 08:25:18;;;;;;;7.60;5.40;;;23.90;94.90;;;;;;5065113;28;20032;-37
2022/05/18 08:27:46;;;;;;;9.55;5.40;;;24.20;94.70;;;;;;5049305;28;20020;-38
2022/05/18 08:30:15;;;;;;;5.97;4.35;;;25.30;93.00;;;;;;5052352;28;20032;-38
2022/05/18 08:32:41;;;;;;;8.65;5.88;;;26.70;91.10;;;;;;5076765;28;20044;-44
2022/05/18 08:35:08;;;;;;;6.53;4.95;;;26.50;86.10;;;;;;5070403;28;20025;-44
2022/05/18 08:37:45;;;;;;;9.73;6.38;;;25.80;88.10;;;;;;5070085;28;20028;-44
2022/05/18 08:40:29;;;;;;;7.53;5.53;;;25.00;88.90;;;;;;5066413;28;20665;-44
2022/05/18 08:43:08;;;;;;;8.38;6.50;;;24.50;90.30;;;;;;5083564;28;20029;-44
2022/05/18 08:45:38;;;;;;;10.52;6.78;;;24.30;91.10;;;;;;5081682;28;20146;-44
2022/05/18 08:48:09;;;;;;;8.63;6.85;;;24.20;91.80;;;;;;5067376;28;20028;-44
2022/05/18 08:50:37;;;;;;;9.75;6.57;;;24.00;92.10;;;;;;5064268;28;20025;-45
2022/05/18 08:53:32;;;;;;;8.25;6.30;;;23.80;92.00;;;;;;5065305;28;21539;-44
2022/05/18 08:56:17;;;;;;;11.15;5.85;;;23.60;92.50;;;;;;5072442;28;20450;-44
2022/05/18 08:58:47;;;;;;;8.88;6.93;;;23.80;92.80;;;;;;5066741;28;20374;-45
2022/05/18 09:01:22;;;;;;;8.30;7.43;;;24.10;92.20;;;;;;5064033;28;20094;-43
2022/05/18 09:03:53;;;;;;;10.32;7.53;;;24.40;91.80;;;;;;5071420;28;20027;-44
2022/05/18 09:06:25;;;;;;;9.40;6.47;;;24.50;91.50;;;;;;5071838;28;20074;-44
2022/05/18 09:11:48;;;;;;;9.88;6.82;;;26.40;87.90;;;;;;5067856;28;20090;-44
2022/05/18 09:14:17;;;;;;;10.10;6.88;;;26.70;86.60;;;;;;5063135;28;20031;-46
2022/05/18 09:16:53;;;;;;;9.02;5.85;;;26.90;85.40;;;;;;5073998;28;20078;-44
2022/05/18 09:19:18;;;;;;;8.30;6.57;;;26.80;85.00;;;;;;5070073;28;20021;-43
2022/05/18 09:21:52;;;;;;;9.75;7.40;;;26.50;85.80;;;;;;5065178;28;20032;-44
2022/05/18 09:24:29;;;;;;;10.05;6.82;;;26.20;86.70;;;;;;5065167;28;20032;-46
2022/05/18 09:27:19;;;;;;;8.52;5.35;;;27.10;85.10;;;;;;5065915;28;20029;-44
2022/05/18 09:30:06;;;;;;;10.30;7.63;;;28.00;83.40;;;;;;5068882;28;20691;-45
2022/05/18 09:32:56;;;;;;;7.53;6.10;;;28.60;79.40;;;;;;5068870;28;20032;-43
2022/05/18 09:35:33;;;;;;;9.13;5.93;;;28.60;80.20;;;;;;5065953;28;20059;-44
2022/05/18 09:38:08;;;;;;;8.60;6.50;;;29.80;77.30;;;;;;5069184;28;20055;-46
2022/05/18 09:40:54;;;;;;;10.82;5.53;;;30.50;74.10;;;;;;5069379;28;20028;-47
2022/05/18 09:43:38;;;;;;;7.78;5.50;;;32.20;69.30;;;;;;5075888;28;20033;-44
2022/05/18 09:46:07;;;;;;;8.57;6.50;;;32.20;66.80;;;;;;5088878;28;20492;-45
2022/05/18 09:48:41;;;;;;;11.33;6.20;;;32.80;65.00;;;;;;5075551;28;20024;-45
2022/05/18 09:51:08;;;;;;;6.45;5.20;;;32.70;62.10;;;;;;5079010;28;20289;-47
2022/05/18 09:53:35;;;;;;;7.38;4.88;;;33.60;61.90;;;;;;5062811;28;20097;-45
2022/05/18 09:56:01;;;;;;;6.75;5.13;;;34.50;59.60;;;;;;5061310;28;20020;-46
2022/05/18 09:58:36;;;;;;;4.97;4.45;;;34.50;58.80;;;;;;5065814;28;20024;-45
2022/05/18 10:09:24;;;;;;;5.22;4.47;;;32.30;60.20;;;;;;5051654;28;20044;-48
2022/05/18 10:11:49;;;;;;;8.90;5.00;;;33.30;58.90;;;;;;5068775;28;20032;-45
2022/05/18 10:14:24;;;;;;;6.05;4.82;;;34.20;57.20;;;;;;5080862;28;20024;-45
2022/05/18 10:17:05;;;;;;;5.53;4.35;;;34.20;55.30;;;;;;5067552;28;20116;-46
2022/05/18 10:19:44;;;;;;;4.22;3.17;;;35.10;54.00;;;;;;5077029;28;20020;-44
2022/05/18 10:22:13;;;;;;;6.32;3.92;;;35.80;53.60;;;;;;5088014;28;20065;-43
2022/05/18 10:24:47;;;;;;;9.30;4.57;;;36.60;52.00;;;;;;5072463;28;20029;-43
2022/05/18 10:27:16;;;;;;;9.85;5.10;;;37.80;50.00;;;;;;5069926;28;20485;-45
2022/05/18 10:29:52;;;;;;;6.25;3.80;;;37.00;49.20;;;;;;5071199;28;20024;-44
2022/05/18 10:32:27;;;;;;;5.72;3.70;;;37.20;50.20;;;;;;5070833;28;20063;-45
2022/05/18 10:34:54;;;;;;;5.63;4.72;;;37.30;49.10;;;;;;5076494;28;20021;-43
2022/05/18 10:37:38;;;;;;;5.00;3.53;;;36.00;48.40;;;;;;5070542;28;20550;-45
2022/05/18 10:40:14;;;;;;;6.57;3.42;;;36.30;49.10;;;;;;5060510;28;20017;-46
2022/05/18 10:42:45;;;;;;;7.50;3.95;;;36.90;48.30;;;;;;5071412;28;20036;-46
2022/05/18 10:45:26;;;;;;;6.95;4.57;;;35.90;49.60;;;;;;5072469;28;20116;-43
2022/05/18 10:47:53;;;;;;;4.70;3.60;;;35.00;51.10;;;;;;5073904;28;20059;-43
2022/05/18 10:50:24;;;;;;;4.68;3.55;;;34.60;51.80;;;;;;5072050;28;20089;-43
2022/05/18 10:52:58;;;;;;;44.20;38.30;;;34.30;52.30;;;;;;5086036;28;20052;-43
2022/05/18 10:55:26;;;;;;;7.70;4.70;;;35.50;51.90;;;;;;5073450;28;20373;-45
2022/05/18 10:58:20;;;;;;;4.95;3.78;;;36.40;50.20;;;;;;5066743;28;20055;-45
2022/05/18 11:01:13;;;;;;;8.50;3.72;;;37.60;49.40;;;;;;5066186;28;20028;-45
2022/05/18 11:04:10;;;;;;;7.43;3.78;;;38.70;46.80;;;;;;5054687;28;20122;-46
2022/05/18 11:06:41;;;;;;;6.03;3.30;;;37.20;47.00;;;;;;5065080;28;20755;-45
2022/05/18 11:09:17;;;;;;;4.90;3.55;;;36.50;49.30;;;;;;5069789;28;20045;-44
2022/05/18 11:11:48;;;;;;;5.88;2.92;;;37.50;47.30;;;;;;5062708;28;20533;-44
2022/05/18 11:14:47;;;;;;;7.80;3.50;;;37.90;47.70;;;;;;5074106;28;20150;-44
2022/05/18 11:17:32;;;;;;;6.75;3.05;;;37.70;46.60;;;;;;5088863;28;20115;-38
2022/05/18 11:20:01;;;;;;;4.90;3.30;;;38.50;45.60;;;;;;5073865;28;20033;-38
2022/05/18 11:22:31;;;;;;;4.03;3.35;;;36.70;47.30;;;;;;5071837;28;20043;-39
2022/05/18 11:25:17;;;;;;;4.38;3.08;;;37.10;48.00;;;;;;5086573;28;20080;-39
2022/05/18 11:27:58;;;;;;;6.57;3.45;;;37.80;47.30;;;;;;5075432;28;20116;-39
2022/05/18 11:30:40;;;;;;;7.03;3.75;;;38.80;46.30;;;;;;5075844;28;20413;-40
2022/05/18 11:33:24;;;;;;;6.55;4.05;;;36.70;46.80;;;;;;5057304;28;20021;-39
2022/05/18 11:35:59;;;;;;;7.78;3.75;;;34.90;50.30;;;;;;5060958;28;20611;-38
2022/05/18 11:38:44;;;;;;;4.00;3.60;;;35.80;49.90;;;;;;5058405;28;20033;-44
2022/05/18 11:41:41;;;;;;;5.53;3.33;;;35.40;49.80;;;;;;5058922;28;20374;-47
2022/05/18 11:44:22;;;;;;;6.78;4.25;;;35.60;49.20;;;;;;5078566;28;20067;-44
2022/05/18 11:47:42;;;;;;;5.75;3.80;;;36.00;48.20;;;;;;5078766;28;20485;-45
2022/05/18 11:50:52;;;;;;;7.15;3.88;;;34.70;50.60;;;;;;5069676;28;20056;-45
2022/05/18 11:53:20;;;;;;;4.18;3.78;;;35.00;49.80;;;;;;5047716;28;20573;-46
2022/05/18 11:56:00;;;;;;;6.78;4.10;;;34.70;50.80;;;;;;5050441;28;20048;-44
2022/05/18 11:58:53;;;;;;;;;;;35.40;49.60;;;;;;5083441;28;20597;-44
2022/05/18 12:01:49;;;;;;;9.13;3.80;;;34.90;50.10;;;;;;5068823;28;19924;-45
2022/05/18 12:04:28;;;;;;;6.10;4.10;;;34.70;51.70;;;;;;5068409;28;20034;-45
2022/05/18 12:07:01;;;;;;;4.35;3.80;;;34.30;51.10;;;;;;5085432;28;20414;-48
2022/05/18 12:10:18;;;;;;;9.90;7.88;;;34.00;50.70;;;;;;5065675;28;20029;-47
2022/05/18 12:12:58;;;;;;;18.52;15.98;;;34.00;52.40;;;;;;5053942;28;20087;-47
2022/05/18 12:15:46;;;;;;;6.30;4.50;;;34.20;52.50;;;;;;5068040;28;20017;-46
2022/05/18 12:18:20;;;;;;;9.57;4.85;;;33.70;52.00;;;;;;5075051;28;20482;-47
2022/05/18 12:20:53;;;;;;;7.03;4.22;;;31.70;53.90;;;;;;5089655;28;20465;-47
2022/05/18 12:23:28;;;;;;;6.82;4.13;;;32.20;55.20;;;;;;5074528;28;20020;-45
2022/05/18 12:25:55;;;;;;;6.50;4.45;;;32.50;54.50;;;;;;5064420;28;20359;-45
2022/05/18 12:28:21;;;;;;;6.40;4.43;;;32.50;55.00;;;;;;5078516;28;20055;-44
2022/05/18 12:30:48;;;;;;;6.72;4.28;;;32.30;54.90;;;;;;5085673;28;20016;-48
2022/05/18 12:33:14;;;;;;;5.70;4.40;;;32.50;54.60;;;;;;5078946;28;20476;-44
2022/05/18 12:36:02;;;;;;;8.35;4.88;;;32.50;55.30;;;;;;5066765;28;20366;-47
2022/05/18 12:38:51;;;;;;;7.35;4.07;;;31.80;55.20;;;;;;5066291;28;20539;-48
2022/05/18 12:41:17;;;;;;;6.72;3.83;;;31.40;55.40;;;;;;5052311;28;20025;-47
2022/05/18 12:43:50;;;;;;;8.30;4.60;;;31.70;55.80;;;;;;5064263;28;20040;-45
2022/05/18 12:46:15;;;;;;;8.13;4.18;;;31.60;55.30;;;;;;5079849;28;20055;-44
2022/05/18 12:49:02;;;;;;;7.32;4.20;;;30.60;55.10;;;;;;5085245;28;20064;-43
2022/05/18 12:51:27;;;;;;;7.13;4.05;;;30.40;56.30;;;;;;5051413;28;20340;-44
2022/05/18 12:54:12;;;;;;;6.13;4.32;;;30.60;57.10;;;;;;5049955;28;20036;-47
2022/05/18 12:56:38;;;;;;;7.65;4.40;;;31.00;57.20;;;;;;5073863;28;20035;-47
2022/05/18 12:59:17;;;;;;;5.90;4.05;;;31.30;55.80;;;;;;5070054;28;20545;-44
2022/05/18 13:01:46;;;;;;;8.35;3.55;;;31.40;55.80;;;;;;5071957;28;20025;-46
2022/05/18 13:04:15;;;;;;;4.70;3.80;;;31.40;56.20;;;;;;5086730;28;20032;-45
2022/05/18 13:06:52;;;;;;;5.78;4.00;;;31.40;56.40;;;;;;5060510;28;20026;-45
2022/05/18 13:09:27;;;;;;;6.00;3.80;;;31.10;56.10;;;;;;5081721;28;20023;-46
2022/05/18 13:12:04;;;;;;;6.57;4.20;;;31.30;55.70;;;;;;5085755;28;20032;-44
2022/05/18 13:15:16;;;;;;;6.38;3.88;;;31.20;55.00;;;;;;5072597;28;20039;-47
2022/05/18 13:17:54;;;;;;;6.55;3.65;;;30.90;56.40;;;;;;5079912;28;20060;-46
2022/05/18 13:20:25;;;;;;;10.68;4.25;;;31.10;57.20;;;;;;5083234;28;20021;-47